Terminal Aerodrome Forecast
Issued by NWS

Home | Current Version | Previous Version | Text Only | Print | Product List | Glossary Off
Versions: 1 2 3 4 5 6 7 8 9 10 11 12 13 14 15 16 17 18 19

000
FTUS43 KABR 241000 AAC
TAFMBG
TAF AMD
KMBG 241049Z 2411/2506 30006KT 5SM BR OVC007
     FM241200 28006KT P6SM OVC010
     FM241500 26017G26KT P6SM SCT015 SCT150
     FM250200 27010KT P6SM FEW250=

USA.gov is the U.S. government's official web portal to all federal, state and local government web resources and services.